Time;durP1;ratioP1;P1;durP2;ratioP2;P2;SDS_P1;SDS_P2;PMS_P1;PMS_P2;Temp;Humidity;BMP_temperature;BMP_pressure;BME280_temperature;BME280_humidity;BME280_pressure;Samples;Min_cycle;Max_cycle;Signal;HPM_P1;HPM_P2
2023/01/25 00:01:51;;;;;;;9.80;7.63;;;1.90;99.90;;;;;;5033646;28;20425;-69
2023/01/25 00:04:19;;;;;;;11.47;7.67;;;1.90;99.90;;;;;;5029304;28;20438;-70
2023/01/25 00:06:44;;;;;;;10.80;8.10;;;1.90;99.90;;;;;;5011677;28;20446;-69
2023/01/25 00:09:10;;;;;;;12.30;8.17;;;1.90;99.90;;;;;;5032872;28;20907;-70
2023/01/25 00:11:36;;;;;;;11.30;7.77;;;1.90;99.90;;;;;;5013888;28;20622;-70
2023/01/25 00:14:03;;;;;;;10.43;7.23;;;1.90;99.90;;;;;;5035458;28;20406;-71
2023/01/25 00:16:29;;;;;;;11.33;7.50;;;1.90;99.90;;;;;;5034574;28;20437;-70
2023/01/25 00:18:55;;;;;;;13.97;8.20;;;2.00;99.90;;;;;;5029137;28;20940;-69
2023/01/25 00:21:23;;;;;;;13.20;9.17;;;1.90;99.90;;;;;;5034157;28;20273;-70
2023/01/25 00:23:49;;;;;;;14.83;9.17;;;1.90;99.90;;;;;;5032585;28;20168;-68
2023/01/25 00:26:15;;;;;;;11.40;9.30;;;1.80;99.90;;;;;;5034781;28;20441;-73
2023/01/25 00:28:41;;;;;;;13.70;9.30;;;1.90;99.90;;;;;;5034708;28;20258;-69
2023/01/25 00:31:31;;;;;;;10.10;7.13;;;1.90;99.90;;;;;;5035835;28;20514;-69
2023/01/25 00:34:20;;;;;;;15.00;8.63;;;1.90;99.90;;;;;;5035525;28;20267;-70
2023/01/25 00:36:45;;;;;;;15.00;8.97;;;2.00;99.90;;;;;;5034634;28;20425;-70
2023/01/25 00:39:12;;;;;;;18.03;9.00;;;2.00;99.90;;;;;;5032810;28;20888;-71
2023/01/25 00:41:38;;;;;;;11.20;8.50;;;1.90;99.90;;;;;;5027097;28;20178;-70
2023/01/25 00:44:04;;;;;;;8.93;7.17;;;1.90;99.90;;;;;;5026489;28;20526;-69
2023/01/25 00:46:29;;;;;;;10.00;7.33;;;1.90;99.90;;;;;;5033602;28;20533;-69
2023/01/25 00:48:55;;;;;;;12.60;8.27;;;1.90;99.90;;;;;;5034448;28;20291;-70
2023/01/25 00:51:22;;;;;;;14.97;8.23;;;1.90;99.90;;;;;;5033306;28;20164;-71
2023/01/25 00:53:48;;;;;;;10.33;7.90;;;1.90;99.90;;;;;;5030003;28;20274;-69
2023/01/25 00:56:14;;;;;;;13.10;9.03;;;1.80;99.90;;;;;;5016784;28;20837;-70
2023/01/25 00:58:41;;;;;;;14.70;8.90;;;1.80;99.90;;;;;;5032997;28;20414;-70
2023/01/25 01:01:07;;;;;;;14.10;8.60;;;1.90;99.90;;;;;;5033060;28;20182;-70
2023/01/25 01:03:32;;;;;;;13.23;7.93;;;1.90;99.90;;;;;;5030552;28;20442;-70
2023/01/25 01:06:06;;;;;;;13.13;8.53;;;1.90;99.90;;;;;;5025640;28;20187;-70
2023/01/25 01:08:35;;;;;;;14.73;7.80;;;1.90;99.90;;;;;;5033191;28;20168;-70
2023/01/25 01:11:03;;;;;;;11.30;8.30;;;1.90;99.90;;;;;;5029731;28;20873;-70
2023/01/25 01:13:29;;;;;;;12.47;8.97;;;1.90;99.90;;;;;;5033050;28;20544;-70
2023/01/25 01:15:56;;;;;;;15.63;8.73;;;2.00;99.90;;;;;;5029154;28;20414;-70
2023/01/25 01:18:22;;;;;;;11.30;8.77;;;2.00;99.90;;;;;;5031597;28;20426;-70
2023/01/25 01:20:51;;;;;;;11.17;8.23;;;2.00;99.90;;;;;;5032967;28;20781;-70
2023/01/25 01:23:17;;;;;;;11.70;9.17;;;2.10;99.90;;;;;;5032852;28;21050;-71
2023/01/25 01:25:43;;;;;;;13.77;8.63;;;2.10;99.90;;;;;;5026404;28;20506;-71
2023/01/25 01:28:10;;;;;;;13.80;9.07;;;2.20;99.90;;;;;;5032657;28;20794;-70
2023/01/25 01:30:36;;;;;;;11.30;8.73;;;2.20;99.90;;;;;;5032327;28;20441;-70
2023/01/25 01:33:02;;;;;;;14.47;7.43;;;2.20;99.90;;;;;;5032671;28;20888;-69
2023/01/25 01:35:28;;;;;;;19.33;8.83;;;2.20;99.90;;;;;;5031290;28;20437;-69
2023/01/25 01:37:54;;;;;;;15.90;9.03;;;2.20;99.90;;;;;;5032523;28;20183;-69
2023/01/25 01:40:20;;;;;;;19.47;11.00;;;2.20;99.90;;;;;;5014475;28;20430;-70
2023/01/25 01:43:03;;;;;;;14.73;9.50;;;2.30;99.90;;;;;;5032384;28;20175;-69
2023/01/25 01:45:47;;;;;;;12.70;10.57;;;2.20;99.90;;;;;;5031930;28;20414;-69
2023/01/25 01:48:38;;;;;;;13.40;9.43;;;2.30;99.90;;;;;;5026811;28;20529;-70
2023/01/25 01:51:22;;;;;;;16.27;8.33;;;2.20;99.90;;;;;;5033739;28;20406;-69
2023/01/25 01:53:53;;;;;;;11.83;8.20;;;2.00;99.90;;;;;;5015155;28;20525;-69
2023/01/25 01:56:25;;;;;;;15.10;9.37;;;2.10;99.90;;;;;;5033494;28;20778;-70
2023/01/25 01:58:54;;;;;;;16.07;10.90;;;2.10;99.90;;;;;;5032841;28;20446;-70
2023/01/25 02:01:20;;;;;;;15.00;10.77;;;2.10;99.90;;;;;;5028218;28;20411;-70
2023/01/25 02:03:47;;;;;;;13.33;8.90;;;2.20;99.90;;;;;;5033392;28;20402;-69
2023/01/25 02:06:24;;;;;;;15.70;8.97;;;2.10;99.90;;;;;;5027051;28;20269;-70
2023/01/25 02:08:52;;;;;;;14.60;10.20;;;2.10;99.90;;;;;;5023267;28;20442;-70
2023/01/25 02:11:19;;;;;;;16.60;8.37;;;2.10;99.90;;;;;;5032556;28;20908;-70
2023/01/25 02:13:45;;;;;;;14.03;9.13;;;2.20;99.90;;;;;;5032513;28;20970;-69
2023/01/25 02:16:16;;;;;;;17.50;9.20;;;2.20;99.90;;;;;;5032306;28;20748;-69
2023/01/25 02:18:42;;;;;;;15.70;8.80;;;2.30;99.90;;;;;;5032230;28;20429;-70
2023/01/25 02:21:07;;;;;;;14.80;8.37;;;2.20;99.90;;;;;;5032712;28;20407;-69
2023/01/25 02:23:57;;;;;;;17.40;9.47;;;2.20;99.90;;;;;;5031967;28;20190;-68
2023/01/25 02:26:23;;;;;;;14.23;9.80;;;2.20;99.90;;;;;;5027809;28;20234;-69
2023/01/25 02:28:56;;;;;;;20.47;9.83;;;2.10;99.90;;;;;;5028088;28;20996;-69
2023/01/25 02:31:22;;;;;;;16.87;10.87;;;2.10;99.90;;;;;;5032278;28;20402;-69
2023/01/25 02:33:47;;;;;;;16.23;11.47;;;2.10;99.90;;;;;;5014070;28;20939;-69
2023/01/25 02:36:27;;;;;;;18.43;12.20;;;2.10;99.90;;;;;;5032253;28;20210;-69
2023/01/25 02:39:11;;;;;;;14.53;10.27;;;2.20;99.90;;;;;;5012511;28;20199;-70
2023/01/25 02:41:39;;;;;;;17.90;10.63;;;2.20;99.90;;;;;;5030357;28;20479;-69
2023/01/25 02:44:17;;;;;;;25.97;10.17;;;2.20;99.90;;;;;;5031941;28;20411;-69
2023/01/25 02:46:49;;;;;;;15.70;10.70;;;2.10;99.90;;;;;;5031551;28;20515;-69
2023/01/25 02:49:15;;;;;;;12.80;9.37;;;2.10;99.90;;;;;;5030548;28;20426;-70
2023/01/25 02:51:43;;;;;;;13.73;9.93;;;2.10;99.90;;;;;;5031607;28;20584;-70
2023/01/25 02:54:12;;;;;;;16.30;10.80;;;2.10;99.90;;;;;;5031773;28;20407;-69
2023/01/25 02:56:41;;;;;;;13.90;9.63;;;2.10;99.90;;;;;;5028993;28;20434;-70
2023/01/25 02:59:09;;;;;;;21.80;11.13;;;2.10;99.90;;;;;;5031447;28;20460;-69
2023/01/25 03:01:36;;;;;;;21.33;11.40;;;2.10;99.90;;;;;;5031511;28;20426;-70
2023/01/25 03:04:02;;;;;;;15.10;9.80;;;2.10;99.90;;;;;;5013998;28;20772;-70
2023/01/25 03:06:28;;;;;;;13.77;9.70;;;2.10;99.90;;;;;;5031423;28;20496;-70
2023/01/25 03:08:53;;;;;;;13.73;9.47;;;2.10;99.90;;;;;;5023558;28;20430;-69
2023/01/25 03:11:19;;;;;;;20.23;10.90;;;2.10;99.90;;;;;;5031615;28;20590;-70
2023/01/25 03:13:45;;;;;;;18.43;11.23;;;2.20;99.90;;;;;;5030635;28;20171;-71
2023/01/25 03:16:12;;;;;;;17.37;11.83;;;2.10;99.90;;;;;;5030128;28;20449;-71
2023/01/25 03:18:38;;;;;;;16.30;9.47;;;2.20;99.90;;;;;;5031531;28;20198;-71
2023/01/25 03:21:06;;;;;;;16.60;9.77;;;2.20;99.90;;;;;;5031494;28;20409;-70
2023/01/25 03:23:32;;;;;;;18.60;11.57;;;2.20;99.90;;;;;;5031841;28;20437;-70
2023/01/25 03:26:09;;;;;;;19.83;12.60;;;2.20;99.90;;;;;;5031453;28;20398;-70
2023/01/25 03:28:35;;;;;;;15.93;10.63;;;2.20;99.90;;;;;;5031620;28;20733;-70
2023/01/25 03:31:00;;;;;;;16.10;11.60;;;2.20;99.90;;;;;;5031264;28;20410;-69
2023/01/25 03:33:26;;;;;;;16.63;12.97;;;2.20;99.90;;;;;;5030527;28;20442;-70
2023/01/25 03:35:53;;;;;;;15.07;10.70;;;2.20;99.90;;;;;;5031219;28;20199;-71
2023/01/25 03:38:19;;;;;;;21.33;11.63;;;2.20;99.90;;;;;;5029208;28;20164;-69
2023/01/25 03:40:45;;;;;;;22.47;12.40;;;2.20;99.90;;;;;;5030796;28;20517;-70
2023/01/25 03:43:11;;;;;;;19.90;11.20;;;2.30;99.90;;;;;;5031184;28;20960;-69
2023/01/25 03:45:37;;;;;;;19.50;10.17;;;2.30;99.90;;;;;;5030996;28;20501;-68
2023/01/25 03:48:02;;;;;;;17.90;12.20;;;2.30;99.90;;;;;;5029339;28;20282;-70
2023/01/25 03:50:28;;;;;;;15.40;12.40;;;2.20;99.90;;;;;;5029095;28;20270;-70
2023/01/25 03:53:00;;;;;;;15.30;9.53;;;2.20;99.90;;;;;;5030907;28;20556;-70
2023/01/25 03:55:26;;;;;;;19.80;11.50;;;2.20;99.90;;;;;;5031012;28;20175;-70
2023/01/25 03:57:51;;;;;;;20.40;11.30;;;2.30;99.90;;;;;;5027544;28;20430;-70
2023/01/25 04:00:18;;;;;;;24.73;11.83;;;2.40;99.90;;;;;;5054269;23;20207;-64
2023/01/25 04:02:45;;;;;;;14.63;10.60;;;2.40;99.90;;;;;;5049371;28;20622;-66
2023/01/25 04:05:10;;;;;;;19.17;11.37;;;2.50;99.90;;;;;;5051690;28;20492;-65
2023/01/25 04:07:36;;;;;;;19.07;12.07;;;2.50;99.90;;;;;;5049976;28;20545;-64
2023/01/25 04:10:03;;;;;;;22.43;12.30;;;2.50;99.90;;;;;;5051609;28;20168;-65
2023/01/25 04:12:28;;;;;;;16.73;12.13;;;2.40;99.90;;;;;;5052035;28;20202;-66
2023/01/25 04:14:54;;;;;;;20.23;12.57;;;2.30;99.90;;;;;;5042922;28;20406;-66
2023/01/25 04:17:19;;;;;;;21.77;12.60;;;2.30;99.90;;;;;;5052057;28;20210;-66
2023/01/25 04:19:45;;;;;;;19.60;11.57;;;2.30;99.90;;;;;;5051973;28;20182;-65
2023/01/25 04:22:11;;;;;;;23.40;13.13;;;2.40;99.90;;;;;;5052033;28;20190;-65
2023/01/25 04:24:37;;;;;;;20.93;12.57;;;2.40;99.90;;;;;;5050133;28;20179;-65
2023/01/25 04:27:03;;;;;;;26.00;15.53;;;2.30;99.90;;;;;;5054811;28;20836;-66
2023/01/25 04:29:29;;;;;;;17.90;11.90;;;2.20;99.90;;;;;;5055051;28;20179;-66
2023/01/25 04:31:54;;;;;;;22.73;12.60;;;2.30;99.90;;;;;;5055166;28;20891;-65
2023/01/25 04:34:20;;;;;;;20.70;12.30;;;2.40;99.90;;;;;;5054924;28;20171;-66
2023/01/25 04:36:46;;;;;;;19.90;12.20;;;2.40;99.90;;;;;;5054442;28;20692;-68
2023/01/25 04:39:11;;;;;;;26.10;13.07;;;2.40;99.90;;;;;;5052982;28;20245;-65
2023/01/25 04:41:37;;;;;;;23.67;13.63;;;2.40;99.90;;;;;;5048608;28;20191;-65
2023/01/25 04:44:03;;;;;;;19.67;12.03;;;2.40;99.90;;;;;;5055923;28;20179;-66
2023/01/25 04:46:28;;;;;;;21.20;12.00;;;2.40;99.90;;;;;;5056595;28;20535;-66
2023/01/25 04:48:54;;;;;;;27.30;14.20;;;2.40;99.90;;;;;;5055534;28;20171;-66
2023/01/25 04:51:19;;;;;;;19.27;14.63;;;2.40;99.90;;;;;;5054234;28;20195;-67
2023/01/25 04:53:45;;;;;;;22.77;12.23;;;2.40;99.90;;;;;;5055484;28;20198;-67
2023/01/25 04:56:11;;;;;;;25.40;11.80;;;2.40;99.90;;;;;;5050973;28;20167;-66
2023/01/25 04:58:37;;;;;;;22.70;13.87;;;2.40;99.90;;;;;;5056002;28;20248;-67
2023/01/25 05:01:03;;;;;;;16.23;11.97;;;2.40;99.90;;;;;;5052644;28;20441;-65
2023/01/25 05:03:29;;;;;;;18.07;10.67;;;2.40;99.90;;;;;;5055727;28;20171;-65
2023/01/25 05:05:54;;;;;;;18.30;11.50;;;2.40;99.90;;;;;;5055248;28;20464;-64
2023/01/25 05:08:20;;;;;;;21.33;12.57;;;2.50;99.90;;;;;;5050407;28;20460;-66
2023/01/25 05:10:45;;;;;;;18.67;11.50;;;2.40;99.90;;;;;;5055099;28;20226;-66
2023/01/25 05:13:11;;;;;;;19.17;11.73;;;2.40;99.90;;;;;;5052323;28;20518;-66
2023/01/25 05:15:37;;;;;;;15.03;10.17;;;2.50;99.90;;;;;;5055417;28;20175;-66
2023/01/25 05:18:03;;;;;;;17.20;9.30;;;2.40;99.90;;;;;;5055038;28;20257;-66
2023/01/25 05:20:28;;;;;;;12.77;9.90;;;2.40;99.90;;;;;;5054359;28;20281;-66
2023/01/25 05:22:54;;;;;;;17.27;10.87;;;2.40;99.90;;;;;;5054650;28;20167;-66
2023/01/25 05:28:05;;;;;;;10.60;7.87;;;2.40;99.90;;;;;;5051701;28;20217;-66
2023/01/25 05:30:31;;;;;;;11.50;8.30;;;2.50;99.90;;;;;;5054825;28;20409;-66
2023/01/25 05:32:57;;;;;;;18.30;11.17;;;2.50;99.90;;;;;;5053874;28;20824;-64
2023/01/25 05:35:23;;;;;;;14.07;8.70;;;2.50;99.90;;;;;;5053905;28;20398;-65
2023/01/25 05:37:48;;;;;;;17.13;10.03;;;2.60;99.90;;;;;;5053394;28;20778;-67
2023/01/25 05:40:14;;;;;;;20.33;10.73;;;2.50;99.90;;;;;;5055111;28;20540;-67
2023/01/25 05:42:40;;;;;;;13.40;9.47;;;2.50;99.90;;;;;;5051688;28;20258;-67
2023/01/25 05:45:07;;;;;;;11.80;7.60;;;2.40;99.90;;;;;;5046467;28;20633;-67
2023/01/25 05:47:33;;;;;;;13.57;8.33;;;2.40;99.90;;;;;;5054886;28;20951;-66
2023/01/25 05:49:58;;;;;;;13.80;9.63;;;2.40;99.90;;;;;;5051441;28;20406;-66
2023/01/25 05:52:24;;;;;;;11.40;9.13;;;2.40;99.90;;;;;;5054668;28;20185;-67
2023/01/25 05:54:49;;;;;;;10.57;9.47;;;2.50;99.90;;;;;;5054337;28;20593;-64
2023/01/25 05:57:15;;;;;;;13.53;9.13;;;2.50;99.90;;;;;;5054281;28;20206;-65
2023/01/25 05:59:41;;;;;;;11.67;9.90;;;2.50;99.90;;;;;;5054388;28;20179;-66
2023/01/25 06:02:06;;;;;;;12.70;8.17;;;2.50;99.90;;;;;;5052541;28;20783;-66
2023/01/25 06:04:32;;;;;;;13.53;9.63;;;2.50;99.90;;;;;;5054390;28;20189;-66
2023/01/25 06:06:57;;;;;;;17.57;9.97;;;2.50;99.90;;;;;;5053984;28;20229;-66
2023/01/25 06:09:23;;;;;;;16.00;10.00;;;2.50;99.90;;;;;;5054027;28;20171;-66
2023/01/25 06:11:49;;;;;;;13.80;11.07;;;2.60;99.90;;;;;;5054130;28;20274;-66
2023/01/25 06:14:15;;;;;;;18.10;11.10;;;2.50;99.90;;;;;;5053914;28;20179;-69
2023/01/25 06:16:40;;;;;;;14.27;9.60;;;2.50;99.90;;;;;;5053964;28;20645;-64
2023/01/25 06:19:07;;;;;;;12.23;7.50;;;2.50;99.90;;;;;;5052350;28;20782;-64
2023/01/25 06:21:36;;;;;;;21.03;10.57;;;2.60;99.90;;;;;;5053908;28;20689;-66
2023/01/25 06:24:03;;;;;;;19.50;11.67;;;2.60;99.90;;;;;;5054300;28;20422;-65
2023/01/25 06:26:29;;;;;;;13.57;9.47;;;2.50;99.90;;;;;;5053696;28;20464;-66
2023/01/25 06:28:54;;;;;;;13.10;9.17;;;2.50;99.90;;;;;;5053824;28;20775;-67
2023/01/25 06:31:20;;;;;;;11.63;7.93;;;2.50;99.90;;;;;;5054525;28;20199;-65
2023/01/25 06:33:50;;;;;;;12.70;7.63;;;2.50;99.90;;;;;;5053669;28;20258;-66
2023/01/25 06:36:18;;;;;;;12.97;7.80;;;2.40;99.90;;;;;;5052318;28;20179;-66
2023/01/25 06:38:48;;;;;;;8.17;5.80;;;2.50;99.90;;;;;;5053584;28;20414;-67
2023/01/25 06:41:14;;;;;;;12.13;7.40;;;2.40;99.90;;;;;;5053821;28;20433;-66
2023/01/25 06:43:39;;;;;;;10.03;7.03;;;2.30;99.90;;;;;;5053725;28;20428;-66
2023/01/25 06:46:08;;;;;;;12.20;7.70;;;2.40;99.90;;;;;;5053036;28;20182;-67
2023/01/25 06:48:34;;;;;;;12.27;7.43;;;2.30;99.90;;;;;;5052566;28;20250;-66
2023/01/25 06:51:04;;;;;;;11.43;7.00;;;2.30;99.90;;;;;;5053733;28;20434;-66
2023/01/25 06:53:31;;;;;;;10.97;7.63;;;2.30;99.90;;;;;;5048761;28;20448;-66
2023/01/25 06:56:01;;;;;;;11.23;7.67;;;2.30;99.90;;;;;;5053767;28;20433;-67
2023/01/25 06:58:28;;;;;;;12.10;8.60;;;2.30;99.90;;;;;;5050527;28;20868;-66
2023/01/25 07:00:58;;;;;;;13.77;8.73;;;2.40;99.90;;;;;;5049518;28;20899;-66
2023/01/25 07:03:23;;;;;;;12.60;9.03;;;2.40;99.90;;;;;;5053084;28;20972;-65
2023/01/25 07:05:49;;;;;;;14.33;10.23;;;2.40;99.90;;;;;;5051818;28;20504;-68
2023/01/25 07:08:17;;;;;;;12.20;10.03;;;2.40;99.90;;;;;;5045564;28;20244;-66
2023/01/25 07:10:51;;;;;;;13.10;9.33;;;2.40;99.90;;;;;;5052851;28;20542;-65
2023/01/25 07:13:17;;;;;;;14.03;9.03;;;2.50;99.90;;;;;;5052407;28;20772;-66
2023/01/25 07:15:42;;;;;;;14.80;10.90;;;2.50;99.90;;;;;;5044000;28;20433;-66
2023/01/25 07:18:08;;;;;;;17.90;11.13;;;2.50;99.90;;;;;;5053141;28;20216;-65
2023/01/25 07:20:33;;;;;;;14.50;10.77;;;2.50;99.90;;;;;;5052511;28;20199;-66
2023/01/25 07:22:59;;;;;;;17.33;10.43;;;2.40;99.90;;;;;;5048560;28;20537;-67
2023/01/25 07:25:24;;;;;;;14.77;10.00;;;2.40;99.90;;;;;;5047532;28;20166;-62
2023/01/25 07:27:50;;;;;;;15.00;9.70;;;2.40;99.90;;;;;;5052141;28;20190;-66
2023/01/25 07:30:16;;;;;;;19.33;10.70;;;2.50;99.90;;;;;;5050794;28;20254;-65
2023/01/25 07:32:42;;;;;;;18.07;10.47;;;2.40;99.90;;;;;;5050752;28;20181;-64
2023/01/25 07:35:08;;;;;;;17.80;11.03;;;2.40;99.90;;;;;;5045975;28;20777;-66
2023/01/25 07:37:34;;;;;;;21.17;11.63;;;2.40;99.90;;;;;;5052431;28;20171;-66
2023/01/25 07:39:59;;;;;;;24.70;14.17;;;2.40;99.90;;;;;;5053184;28;20220;-67
2023/01/25 07:42:25;;;;;;;23.30;13.27;;;2.40;99.90;;;;;;5050332;28;20433;-67
2023/01/25 07:44:50;;;;;;;15.63;10.37;;;2.40;99.90;;;;;;5053023;28;20171;-67
2023/01/25 07:47:16;;;;;;;12.63;9.47;;;2.40;99.90;;;;;;5051916;28;20207;-66
2023/01/25 07:49:42;;;;;;;17.00;9.70;;;2.40;99.90;;;;;;5048340;28;20175;-66
2023/01/25 07:52:07;;;;;;;14.53;9.33;;;2.40;99.90;;;;;;5052931;28;20183;-67
2023/01/25 07:54:33;;;;;;;15.93;9.93;;;2.30;99.90;;;;;;5053476;28;20159;-67
2023/01/25 07:56:59;;;;;;;16.43;10.83;;;2.30;99.90;;;;;;5051812;28;20453;-66
2023/01/25 07:59:25;;;;;;;16.53;10.90;;;2.40;99.90;;;;;;5053603;28;20464;-67
2023/01/25 08:01:50;;;;;;;16.33;11.00;;;2.50;99.90;;;;;;5045040;28;20325;-66
2023/01/25 08:04:16;;;;;;;18.47;11.60;;;2.50;99.90;;;;;;5056892;28;20409;-67
2023/01/25 08:06:43;;;;;;;16.93;11.30;;;2.50;99.90;;;;;;5056930;28;20460;-66
2023/01/25 08:09:16;;;;;;;18.90;11.13;;;2.50;99.90;;;;;;5056156;28;20163;-66
2023/01/25 08:11:42;;;;;;;19.13;11.63;;;2.50;99.90;;;;;;5055732;28;20667;-65
2023/01/25 08:14:07;;;;;;;23.73;12.87;;;2.50;99.90;;;;;;5055887;28;20930;-66
2023/01/25 08:16:33;;;;;;;21.20;12.43;;;2.50;99.90;;;;;;5049801;28;20496;-66
2023/01/25 08:19:01;;;;;;;26.57;14.67;;;2.40;99.90;;;;;;5055550;28;20421;-66
2023/01/25 08:21:29;;;;;;;19.23;13.20;;;2.40;99.90;;;;;;5045995;28;20614;-66
2023/01/25 08:23:57;;;;;;;18.70;13.07;;;2.20;99.90;;;;;;5053110;28;20459;-66
2023/01/25 08:26:23;;;;;;;25.07;11.77;;;2.30;99.90;;;;;;5050864;28;20436;-65
2023/01/25 08:28:48;;;;;;;19.00;11.30;;;2.40;99.90;;;;;;5045604;28;20718;-65
2023/01/25 08:31:18;;;;;;;20.70;12.90;;;2.50;99.90;;;;;;5052328;28;20531;-66
2023/01/25 08:33:45;;;;;;;15.50;11.93;;;2.40;99.90;;;;;;5047666;28;20214;-66
2023/01/25 08:36:11;;;;;;;19.07;11.87;;;2.40;99.90;;;;;;5055805;28;20844;-66
2023/01/25 08:38:38;;;;;;;16.83;10.70;;;2.30;99.90;;;;;;5055571;28;20417;-66
2023/01/25 08:41:13;;;;;;;17.27;9.67;;;2.20;99.90;;;;;;5053095;28;20476;-67
2023/01/25 08:43:39;;;;;;;18.17;12.67;;;2.30;99.90;;;;;;5051416;28;20440;-67
2023/01/25 08:46:05;;;;;;;26.57;10.30;;;2.30;99.90;;;;;;5043876;28;20559;-65
2023/01/25 08:48:31;;;;;;;27.17;12.03;;;2.30;99.90;;;;;;5049259;28;20513;-65
2023/01/25 08:50:57;;;;;;;13.57;9.80;;;2.20;99.90;;;;;;5047035;28;20832;-65
2023/01/25 08:53:22;;;;;;;17.77;10.17;;;2.10;99.90;;;;;;5051696;28;20907;-65
2023/01/25 08:55:48;;;;;;;18.80;10.83;;;2.10;99.90;;;;;;5054968;28;20420;-65
2023/01/25 08:58:15;;;;;;;19.93;12.00;;;2.10;99.90;;;;;;5059416;28;20260;-65
2023/01/25 09:00:43;;;;;;;20.43;10.87;;;2.10;99.90;;;;;;5059228;28;20203;-64
2023/01/25 09:03:09;;;;;;;13.60;10.40;;;2.00;99.90;;;;;;5046694;28;20410;-64
2023/01/25 09:05:36;;;;;;;20.03;10.63;;;2.00;99.90;;;;;;5049360;28;20410;-65
2023/01/25 09:08:03;;;;;;;24.70;12.60;;;2.10;99.90;;;;;;5047378;28;20789;-65
2023/01/25 09:10:29;;;;;;;15.40;9.97;;;2.10;99.90;;;;;;5053166;28;20934;-66
2023/01/25 09:12:54;;;;;;;22.90;13.17;;;2.10;99.90;;;;;;5054136;28;20492;-67
2023/01/25 09:15:21;;;;;;;18.57;11.93;;;2.10;99.90;;;;;;5055156;28;20167;-66
2023/01/25 09:17:50;;;;;;;20.03;10.77;;;2.10;99.90;;;;;;5047269;28;20660;-66
2023/01/25 09:20:16;;;;;;;19.40;11.23;;;2.10;99.90;;;;;;5054390;28;20811;-66
2023/01/25 09:22:41;;;;;;;22.33;11.93;;;2.10;99.90;;;;;;5047936;28;20420;-66
2023/01/25 09:25:07;;;;;;;25.03;12.13;;;2.10;99.90;;;;;;5054689;28;20409;-66
2023/01/25 09:27:33;;;;;;;15.40;10.70;;;2.10;99.90;;;;;;5048114;28;20590;-66
2023/01/25 09:29:59;;;;;;;21.20;11.43;;;2.10;99.90;;;;;;5054717;28;20425;-64
2023/01/25 09:32:24;;;;;;;19.40;11.60;;;2.10;99.90;;;;;;5054681;28;20278;-64
2023/01/25 09:34:50;;;;;;;19.17;11.20;;;2.00;99.90;;;;;;5054030;28;20167;-66
2023/01/25 09:37:15;;;;;;;23.03;12.17;;;2.00;99.90;;;;;;5054741;28;20186;-65
2023/01/25 09:39:41;;;;;;;19.23;12.57;;;2.10;99.90;;;;;;5050767;28;20182;-66
2023/01/25 09:42:25;;;;;;;15.00;9.77;;;2.10;99.90;;;;;;5043018;28;20195;-66
2023/01/25 09:45:06;;;;;;;20.77;12.30;;;2.00;99.90;;;;;;5051483;28;20175;-66
2023/01/25 09:48:03;;;;;;;19.07;11.13;;;2.00;99.90;;;;;;5051313;28;20483;-65
2023/01/25 09:50:40;;;;;;;17.83;10.90;;;1.90;99.90;;;;;;5050071;28;20398;-65
2023/01/25 09:53:31;;;;;;;16.53;10.80;;;1.90;99.90;;;;;;5047298;28;20977;-66
2023/01/25 09:56:16;;;;;;;23.00;10.47;;;2.00;99.90;;;;;;5052310;28;20459;-65
2023/01/25 09:58:49;;;;;;;24.50;13.97;;;2.00;99.90;;;;;;5051325;28;20422;-65
2023/01/25 10:01:35;;;;;;;18.97;11.37;;;1.90;99.90;;;;;;5052687;28;20862;-65
2023/01/25 10:04:16;;;;;;;20.93;12.63;;;2.00;99.90;;;;;;5050903;28;20752;-66
2023/01/25 10:06:46;;;;;;;17.73;10.17;;;2.00;99.90;;;;;;5049647;28;20548;-66
2023/01/25 10:09:27;;;;;;;20.73;9.97;;;1.90;99.90;;;;;;5053715;28;20409;-65
2023/01/25 10:11:53;;;;;;;17.70;10.90;;;2.10;99.90;;;;;;5052565;28;20516;-65
2023/01/25 10:14:20;;;;;;;23.23;10.90;;;2.20;99.90;;;;;;5051142;28;21037;-66
2023/01/25 10:16:45;;;;;;;21.07;11.87;;;2.30;99.90;;;;;;5043148;28;20658;-65
2023/01/25 10:19:49;;;;;;;17.40;10.30;;;2.20;99.90;;;;;;5052678;28;20490;-66
2023/01/25 10:22:28;;;;;;;18.23;10.80;;;2.20;99.90;;;;;;4988976;28;20203;-66
2023/01/25 10:25:03;;;;;;;18.67;11.90;;;2.40;99.90;;;;;;5044117;28;20976;-67
2023/01/25 10:28:01;;;;;;;19.93;12.37;;;2.60;99.90;;;;;;5051962;28;20452;-65
2023/01/25 10:31:06;;;;;;;18.10;11.47;;;2.30;99.90;;;;;;5037416;28;20437;-66
2023/01/25 10:33:37;;;;;;;17.47;10.93;;;2.10;99.90;;;;;;5048306;28;20417;-66
2023/01/25 10:36:04;;;;;;;18.10;11.63;;;2.00;99.90;;;;;;5047233;28;20508;-67
2023/01/25 10:38:41;;;;;;;16.60;10.20;;;2.10;99.90;;;;;;5046783;28;20501;-66
2023/01/25 10:41:33;;;;;;;16.23;11.20;;;2.00;99.90;;;;;;5047317;28;20790;-67
2023/01/25 10:46:49;;;;;;;15.43;9.13;;;1.90;99.90;;;;;;5052728;28;20456;-67
2023/01/25 10:49:54;;;;;;;17.83;10.23;;;2.10;99.90;;;;;;5053273;28;20402;-66
2023/01/25 10:52:21;;;;;;;19.93;11.90;;;2.20;99.90;;;;;;5038117;28;20575;-67
2023/01/25 10:54:51;;;;;;;23.80;13.20;;;2.10;99.90;;;;;;5052777;28;20433;-63
2023/01/25 10:57:19;;;;;;;19.90;11.70;;;2.10;99.90;;;;;;5051844;28;20393;-66
2023/01/25 10:59:49;;;;;;;17.07;11.40;;;2.10;99.90;;;;;;5051015;28;20409;-62
2023/01/25 11:02:45;;;;;;;16.70;10.57;;;2.00;99.90;;;;;;5051069;28;20858;-66
2023/01/25 11:05:33;;;;;;;16.17;11.50;;;2.10;99.90;;;;;;5046405;28;20789;-67
2023/01/25 11:08:25;;;;;;;24.83;12.60;;;2.10;99.90;;;;;;5041845;28;20445;-68
2023/01/25 11:10:52;;;;;;;24.23;13.57;;;2.00;99.90;;;;;;5050323;28;20860;-66
2023/01/25 11:13:20;;;;;;;22.93;12.37;;;2.00;99.90;;;;;;5050404;28;20474;-66
2023/01/25 11:15:49;;;;;;;21.67;11.90;;;2.00;99.90;;;;;;5052224;28;20406;-67
2023/01/25 11:18:24;;;;;;;21.43;13.73;;;2.00;99.90;;;;;;5053325;28;20598;-64
2023/01/25 11:21:17;;;;;;;21.40;12.70;;;2.10;99.90;;;;;;5043949;28;20460;-67
2023/01/25 11:24:10;;;;;;;24.30;15.97;;;2.00;99.90;;;;;;5044981;28;20410;-67
2023/01/25 11:26:39;;;;;;;26.50;14.63;;;2.10;99.90;;;;;;5046818;28;20513;-66
2023/01/25 11:29:19;;;;;;;19.10;11.57;;;2.00;99.90;;;;;;5052088;28;20860;-67
2023/01/25 11:31:57;;;;;;;27.73;16.20;;;1.90;99.90;;;;;;5045919;28;20905;-67
2023/01/25 11:34:28;;;;;;;24.60;14.60;;;2.00;99.90;;;;;;5045465;28;20408;-66
2023/01/25 11:37:15;;;;;;;30.20;16.73;;;2.10;99.90;;;;;;5055615;28;20931;-66
2023/01/25 11:39:42;;;;;;;20.30;14.70;;;2.10;99.90;;;;;;5047359;28;20566;-66
2023/01/25 11:42:08;;;;;;;18.70;12.53;;;1.90;99.90;;;;;;5054515;28;20484;-68
2023/01/25 11:45:26;;;;;;;19.50;12.53;;;2.00;99.90;;;;;;5051103;28;20433;-67
2023/01/25 11:48:17;;;;;;;20.77;12.20;;;1.90;99.90;;;;;;5052534;28;20205;-66
2023/01/25 11:51:03;;;;;;;18.53;12.67;;;2.00;99.90;;;;;;5048871;28;20427;-66
2023/01/25 11:53:46;;;;;;;25.70;11.77;;;2.00;99.90;;;;;;5044172;28;20438;-67
2023/01/25 11:56:21;;;;;;;20.90;12.63;;;2.10;99.90;;;;;;5049116;28;20872;-67
2023/01/25 11:59:18;;;;;;;31.73;16.37;;;2.20;99.90;;;;;;5053813;28;20978;-66
2023/01/25 12:02:03;;;;;;;31.30;18.93;;;2.20;99.90;;;;;;5056137;28;20455;-66
2023/01/25 12:04:53;;;;;;;25.20;14.63;;;2.10;99.90;;;;;;5045897;28;20410;-67
2023/01/25 12:07:40;;;;;;;26.63;15.50;;;2.00;99.90;;;;;;5055824;28;21039;-67
2023/01/25 12:10:11;;;;;;;20.87;14.33;;;2.10;99.90;;;;;;5050451;28;20397;-67
2023/01/25 12:13:07;;;;;;;26.67;15.37;;;2.00;99.90;;;;;;5054832;28;20508;-66
2023/01/25 12:15:41;;;;;;;29.60;14.50;;;2.10;99.90;;;;;;5055422;28;20437;-68
2023/01/25 12:18:40;;;;;;;25.57;13.00;;;2.20;99.90;;;;;;5048676;28;20447;-66
2023/01/25 12:21:14;;;;;;;25.57;14.43;;;2.00;99.90;;;;;;5051364;28;20809;-65
2023/01/25 12:24:00;;;;;;;23.43;15.20;;;2.00;99.90;;;;;;5051734;28;20436;-67
2023/01/25 12:26:38;;;;;;;22.17;14.93;;;1.90;99.90;;;;;;5051194;28;20448;-66
2023/01/25 12:29:25;;;;;;;28.10;15.47;;;2.00;99.90;;;;;;5047927;28;20416;-67
2023/01/25 12:31:57;;;;;;;24.67;14.40;;;2.00;99.90;;;;;;5054976;28;20432;-67
2023/01/25 12:34:36;;;;;;;24.97;14.77;;;2.00;99.90;;;;;;5055233;28;20420;-66
2023/01/25 12:37:21;;;;;;;30.90;15.13;;;2.00;99.90;;;;;;5047161;28;20931;-66
2023/01/25 12:39:57;;;;;;;23.87;14.07;;;1.90;99.90;;;;;;5051559;28;20414;-65
2023/01/25 12:42:46;;;;;;;23.07;13.80;;;1.90;99.90;;;;;;5048736;28;20432;-65
2023/01/25 12:45:17;;;;;;;17.03;11.90;;;1.90;99.90;;;;;;5053585;28;20453;-67
2023/01/25 12:48:10;;;;;;;22.30;14.40;;;1.80;99.90;;;;;;5053239;28;20540;-66
2023/01/25 12:50:48;;;;;;;22.00;11.43;;;1.80;99.90;;;;;;5029199;28;20481;-65
2023/01/25 12:53:41;;;;;;;20.13;13.30;;;1.80;99.90;;;;;;5055830;28;20769;-66
2023/01/25 12:56:08;;;;;;;29.83;15.30;;;1.70;99.90;;;;;;5049087;28;20490;-66
2023/01/25 12:58:45;;;;;;;22.33;14.20;;;1.70;99.90;;;;;;5055999;28;20483;-66
2023/01/25 13:01:48;;;;;;;24.20;14.33;;;1.70;99.90;;;;;;5056019;28;20488;-66
2023/01/25 13:04:22;;;;;;;26.13;14.53;;;1.80;99.90;;;;;;5047152;28;20505;-66